New Horizon — WKWB — position and weather

sailwx.info

Track history (hours):
 
Tides and Currents Weather Stations Pressure Air Temp Water Temp Dewpoint Dewpoint Depression Visibility Wind Speed Wind Dir Waves Ship Positions

Oceanographic research ship New Horizon (USA)

Detailed information on ship capabilities available from University of Delaware's Ocean Information Center.

Owner: Bold Horizon, LLC., Annapolis, MD. More information available from US FCC via Universal Licensing System and Coast Guard Vessel Documentation Center.

Last reported at 2020-Jan-17 02:28 UTC. Time now 2020-Jan-21 23:54 UTC.
Position N 33°05' W 118°26'.

Type: Other ship. MMSI: 303273000.

Date/timePositionNaut miles runAvg speedWind from/ knotsBaromVisibWave heightAir tempDewpointWater temp
2020-Jan-17 02:28N 33°05' W 118°26'2010.3
2020-Jan-17 00:30N 32°57' W 118°04'49 7.0
2020-Jan-16 17:30N 32°42' W 117°09'0 0.0
2020-Jan-16 17:00N 32°42' W 117°09'  
2020-Jan-12 20:30N 32°42' W 117°09'0 0.0
2020-Jan-12 18:31N 32°42' W 117°09'0 0.0
2020-Jan-12 17:31N 32°42' W 117°09'0 0.0
2020-Jan-12 16:30N 32°42' W 117°09'0 0.0
2020-Jan-12 16:01N 32°42' W 117°09'0 0.0
2020-Jan-12 15:30N 32°42' W 117°09'20 6.6
2020-Jan-12 12:31N 32°33' W 117°30'1010.2
2020-Jan-12 11:30N 32°29' W 117°41'1010.2
2020-Jan-12 10:30N 32°25' W 117°52'127 9.3
2020-Jan-11 20:56N 31°36' W 120°10'4 0.9
2020-Jan-11 16:37N 31°32' W 120°09'0 0.3
2020-Jan-11 15:37N 31°32' W 120°09'33 3.6
2020-Jan-11 06:27N 31°15' W 120°42'20 6.8
2020-Jan-11 03:28N 31°03' W 121°01'1 2.3
2020-Jan-11 02:57N 31°02' W 121°01'  
2020-Jan-08 12:49N 31°00' W 121°14'1 0.5
2020-Jan-08 11:30N 30°60' W 121°14'0 0.8
2020-Jan-08 10:59N 30°59' W 121°14'13 2.1
2020-Jan-08 04:49N 30°57' W 120°59'0 0.0
2020-Jan-08 01:41N 30°57' W 120°59'1 1.5
2020-Jan-08 00:54N 30°58' W 120°58'2 1.4
2020-Jan-07 23:24N 30°60' W 120°60'11 0.9
2020-Jan-07 11:26N 31°02' W 120°47'9 9.6
2020-Jan-07 10:30N 31°09' W 120°41'  
Track history (hours):
 
Tides and Currents Weather Stations Pressure Air Temp Water Temp Dewpoint Dewpoint Depression Visibility Wind Speed Wind Dir Waves Ship Positions

Oceanographic research ship New Horizon (USA)

Detailed information on ship capabilities available from University of Delaware's Ocean Information Center.

Owner: Bold Horizon, LLC., Annapolis, MD. More information available from US FCC via Universal Licensing System and Coast Guard Vessel Documentation Center.

Last reported at 2020-Jan-17 02:28 UTC. Time now 2020-Jan-21 23:54 UTC.
Position N 33°05' W 118°26'.

Type: Other ship. MMSI: 303273000.

Date/timePositionNaut miles runAvg speedWind from/ knotsBaromVisibWave heightAir tempDewpointWater temp
2020-Jan-17 02:28N 33°05' W 118°26'2010.3
2020-Jan-17 00:30N 32°57' W 118°04'49 7.0
2020-Jan-16 17:30N 32°42' W 117°09'0 0.0
2020-Jan-16 17:00N 32°42' W 117°09'  
2020-Jan-12 20:30N 32°42' W 117°09'0 0.0
2020-Jan-12 18:31N 32°42' W 117°09'0 0.0
2020-Jan-12 17:31N 32°42' W 117°09'0 0.0
2020-Jan-12 16:30N 32°42' W 117°09'0 0.0
2020-Jan-12 16:01N 32°42' W 117°09'0 0.0
2020-Jan-12 15:30N 32°42' W 117°09'20 6.6
2020-Jan-12 12:31N 32°33' W 117°30'1010.2
2020-Jan-12 11:30N 32°29' W 117°41'1010.2
2020-Jan-12 10:30N 32°25' W 117°52'127 9.3
2020-Jan-11 20:56N 31°36' W 120°10'4 0.9
2020-Jan-11 16:37N 31°32' W 120°09'0 0.3
2020-Jan-11 15:37N 31°32' W 120°09'33 3.6
2020-Jan-11 06:27N 31°15' W 120°42'20 6.8
2020-Jan-11 03:28N 31°03' W 121°01'1 2.3
2020-Jan-11 02:57N 31°02' W 121°01'  
2020-Jan-08 12:49N 31°00' W 121°14'1 0.5
2020-Jan-08 11:30N 30°60' W 121°14'0 0.8
2020-Jan-08 10:59N 30°59' W 121°14'13 2.1
2020-Jan-08 04:49N 30°57' W 120°59'0 0.0
2020-Jan-08 01:41N 30°57' W 120°59'1 1.5
2020-Jan-08 00:54N 30°58' W 120°58'2 1.4
2020-Jan-07 23:24N 30°60' W 120°60'11 0.9
2020-Jan-07 11:26N 31°02' W 120°47'9 9.6
2020-Jan-07 10:30N 31°09' W 120°41'  

Dump ship's entire track history